createdAt,value
2018-07-05T00:02:30.739Z,64.47
2018-07-05T00:05:11.204Z,65.05
2018-07-05T00:07:51.664Z,64.76
2018-07-05T00:10:32.120Z,65.02
2018-07-05T00:13:12.612Z,66.25
2018-07-05T00:15:53.250Z,66.53
2018-07-05T00:18:33.809Z,67.52
2018-07-05T00:21:13.967Z,67.84
2018-07-05T00:23:54.378Z,67.62
2018-07-05T00:26:34.692Z,67.69
2018-07-05T00:29:15.094Z,67.57
2018-07-05T00:31:55.579Z,67.82
2018-07-05T00:34:35.907Z,67.83
2018-07-05T00:37:16.053Z,67.79
2018-07-05T00:39:56.486Z,66.84
2018-07-05T00:42:36.918Z,66.97
2018-07-05T00:45:17.404Z,67.08
2018-07-05T00:47:57.774Z,66.86
2018-07-05T00:50:38.058Z,66.71
2018-07-05T00:53:18.179Z,67.17
2018-07-05T00:55:58.581Z,67.64
2018-07-05T00:58:38.825Z,67.13
2018-07-05T01:01:19.227Z,67.32
2018-07-05T01:03:59.512Z,66.79
2018-07-05T01:06:39.873Z,66.54
2018-07-05T01:09:20.130Z,67.22
2018-07-05T01:12:00.690Z,66.85
2018-07-05T01:14:41.054Z,66.56
2018-07-05T01:17:21.836Z,66.40
2018-07-05T01:20:02.081Z,66.10
2018-07-05T01:22:42.642Z,65.99
2018-07-05T01:25:23.001Z,66.02
2018-07-05T01:28:03.503Z,65.67
2018-07-05T01:30:43.839Z,66.02
2018-07-05T01:33:24.109Z,65.52
2018-07-05T01:36:04.286Z,65.90
2018-07-05T01:38:44.794Z,65.33
2018-07-05T01:41:25.160Z,65.60
2018-07-05T01:44:05.513Z,65.89
2018-07-05T01:46:45.748Z,65.62
2018-07-05T01:49:26.334Z,65.76
2018-07-05T01:52:10.617Z,65.85
2018-07-05T01:54:50.946Z,66.02
2018-07-05T01:57:31.193Z,65.71
2018-07-05T02:00:11.461Z,65.76
2018-07-05T02:02:52.228Z,65.00
2018-07-05T02:05:34.015Z,65.08
2018-07-05T02:08:14.453Z,64.99
2018-07-05T02:10:55.050Z,64.86
2018-07-05T02:13:35.221Z,64.83
2018-07-05T02:16:16.102Z,64.62
2018-07-05T02:18:56.656Z,65.22
2018-07-05T02:21:37.218Z,64.61
2018-07-05T02:24:17.484Z,64.83
2018-07-05T02:26:57.963Z,65.06
2018-07-05T02:29:38.585Z,64.55
2018-07-05T02:32:18.996Z,64.79
2018-07-05T02:34:59.263Z,64.60
2018-07-05T02:37:44.989Z,64.50
2018-07-05T02:40:26.310Z,64.62
2018-07-05T02:43:06.525Z,64.16
2018-07-05T02:45:47.115Z,64.48
2018-07-05T02:48:27.394Z,64.83
2018-07-05T02:51:07.807Z,64.59
2018-07-05T02:53:48.418Z,64.32
2018-07-05T02:56:28.633Z,64.79
2018-07-05T02:59:08.992Z,64.04
2018-07-05T03:01:49.161Z,64.17
2018-07-05T03:04:29.631Z,63.80
2018-07-05T03:07:10.063Z,63.50
2018-07-05T03:09:50.423Z,63.08
2018-07-05T03:12:30.783Z,62.85
2018-07-05T03:15:11.248Z,62.48
2018-07-05T03:17:51.332Z,61.92
2018-07-05T03:20:31.944Z,61.85
2018-07-05T03:23:12.322Z,61.15
2018-07-05T03:25:52.989Z,61.14
2018-07-05T03:28:33.348Z,61.15
2018-07-05T03:31:13.914Z,60.83
2018-07-05T03:33:54.277Z,61.08
2018-07-05T03:36:34.697Z,61.34
2018-07-05T03:39:15.163Z,61.92
2018-07-05T03:41:55.819Z,61.27
2018-07-05T03:44:35.954Z,60.56
2018-07-05T03:47:16.476Z,60.69
2018-07-05T03:49:56.835Z,60.82
2018-07-05T03:52:37.249Z,60.93
2018-07-05T03:55:17.453Z,60.80
2018-07-05T03:57:58.323Z,61.18
2018-07-05T04:00:38.688Z,60.73
2018-07-05T04:03:19.453Z,61.02
2018-07-05T04:06:00.221Z,61.03
2018-07-05T04:08:40.604Z,60.97
2018-07-05T04:11:20.830Z,61.20
2018-07-05T04:14:01.402Z,60.98
2018-07-05T04:16:41.865Z,61.21
2018-07-05T04:19:22.524Z,61.69
2018-07-05T04:22:02.783Z,60.99
2018-07-05T04:24:43.273Z,61.35
2018-07-05T04:27:23.598Z,61.90
2018-07-05T04:30:03.935Z,61.64
2018-07-05T04:32:44.202Z,61.22
2018-07-05T04:35:24.580Z,60.25
2018-07-05T04:38:04.613Z,60.16
2018-07-05T04:40:45.116Z,59.47
2018-07-05T04:43:25.298Z,59.31
2018-07-05T04:46:06.119Z,59.53
2018-07-05T04:48:46.477Z,58.59
2018-07-05T04:51:26.724Z,59.09
2018-07-05T04:54:06.992Z,58.99
2018-07-05T04:56:47.352Z,58.60
2018-07-05T04:59:27.711Z,59.50
2018-07-05T05:02:08.202Z,59.48
2018-07-05T05:04:48.521Z,58.68
2018-07-05T05:07:29.039Z,58.53
2018-07-05T05:10:09.374Z,58.73
2018-07-05T05:12:50.092Z,58.94
2018-07-05T05:15:30.402Z,59.06
2018-07-05T05:18:10.759Z,60.18
2018-07-05T05:20:51.037Z,60.51
2018-07-05T05:23:31.659Z,59.55
2018-07-05T05:26:11.917Z,59.11
2018-07-05T05:28:52.529Z,58.95
2018-07-05T05:31:32.840Z,58.78
2018-07-05T05:34:13.130Z,58.78
2018-07-05T05:36:53.496Z,59.03
2018-07-05T05:39:33.915Z,58.71
2018-07-05T05:42:14.484Z,58.29
2018-07-05T05:44:55.070Z,57.86
2018-07-05T05:47:35.326Z,59.04
2018-07-05T05:50:15.745Z,58.42
2018-07-05T05:52:56.173Z,58.44
2018-07-05T05:55:37.019Z,58.39
2018-07-05T05:58:17.763Z,58.73
2018-07-05T06:00:58.175Z,58.75
2018-07-05T06:03:38.643Z,58.83
2018-07-05T06:06:18.991Z,58.60
2018-07-05T06:08:59.203Z,57.76
2018-07-05T06:11:40.105Z,57.99
2018-07-05T06:14:20.241Z,57.49
2018-07-05T06:17:00.688Z,57.38
2018-07-05T06:19:41.151Z,57.40
2018-07-05T06:22:21.537Z,57.90
2018-07-05T06:25:01.766Z,59.12
2018-07-05T06:27:42.247Z,59.55
2018-07-05T06:30:22.483Z,60.45
2018-07-05T06:33:02.971Z,60.62
2018-07-05T06:35:43.109Z,60.69
2018-07-05T06:38:23.671Z,61.14
2018-07-05T06:41:04.685Z,61.22
2018-07-05T06:43:45.415Z,60.67
2018-07-05T06:46:25.693Z,60.65
2018-07-05T06:49:06.335Z,60.39
2018-07-05T06:51:46.591Z,61.15
2018-07-05T06:54:27.073Z,60.90
2018-07-05T06:57:07.285Z,60.35
2018-07-05T06:59:47.534Z,60.64
2018-07-05T07:02:27.823Z,60.38
2018-07-05T07:05:08.283Z,60.67
2018-07-05T07:07:48.542Z,59.89
2018-07-05T07:10:29.209Z,60.38
2018-07-05T07:13:09.363Z,60.07
2018-07-05T07:15:50.238Z,59.98
2018-07-05T07:18:30.363Z,60.31
2018-07-05T07:21:10.749Z,60.22
2018-07-05T07:23:51.027Z,59.66
2018-07-05T07:26:31.502Z,59.12
2018-07-05T07:29:11.827Z,59.17
2018-07-05T07:31:52.294Z,59.11
2018-07-05T07:34:32.592Z,59.42
2018-07-05T07:37:12.903Z,59.02
2018-07-05T07:39:53.366Z,59.30
2018-07-05T07:42:21.332Z,59.51
2018-07-05T07:44:49.612Z,59.12
2018-07-05T07:47:17.576Z,59.46
2018-07-05T07:49:45.651Z,58.92
2018-07-05T07:52:13.516Z,59.00
2018-07-05T07:54:41.482Z,58.91
2018-07-05T07:57:09.631Z,58.83
2018-07-05T07:59:37.729Z,58.25
2018-07-05T08:02:05.594Z,58.29
2018-07-05T08:04:33.520Z,57.74
2018-07-05T08:07:01.554Z,58.04
2018-07-05T08:09:29.450Z,57.94
2018-07-05T08:11:57.370Z,57.70
2018-07-05T08:14:25.295Z,56.80
2018-07-05T08:16:53.036Z,57.22
2018-07-05T08:19:21.070Z,56.72
2018-07-05T08:21:49.074Z,56.51
2018-07-05T08:24:16.905Z,56.81
2018-07-05T08:26:44.874Z,56.31
2018-07-05T08:29:12.944Z,56.39
2018-07-05T08:31:40.936Z,56.85
2018-07-05T08:34:08.711Z,57.41
2018-07-05T08:36:36.522Z,57.37
2018-07-05T08:39:05.394Z,57.51
2018-07-05T08:41:33.349Z,57.00
2018-07-05T08:44:01.166Z,57.28
2018-07-05T08:46:29.745Z,56.99
2018-07-05T08:48:57.807Z,56.89
2018-07-05T08:51:25.691Z,57.15
2018-07-05T08:53:53.584Z,56.87
2018-07-05T08:56:21.777Z,56.20
2018-07-05T08:58:49.595Z,55.94
2018-07-05T09:01:17.471Z,55.73
2018-07-05T09:03:45.436Z,55.51
2018-07-05T09:06:13.221Z,55.01
2018-07-05T09:08:41.039Z,54.87
2018-07-05T09:11:09.134Z,55.15
2018-07-05T09:13:36.999Z,55.57
2018-07-05T09:16:04.970Z,56.00
2018-07-05T09:18:33.142Z,56.09
2018-07-05T09:21:01.158Z,56.04
2018-07-05T09:23:29.222Z,55.97
2018-07-05T09:25:56.843Z,56.18
2018-07-05T09:28:25.122Z,55.97
2018-07-05T09:30:53.190Z,56.29
2018-07-05T09:33:20.996Z,55.28
2018-07-05T09:35:49.126Z,54.96
2018-07-05T09:38:17.238Z,53.61
2018-07-05T09:40:45.270Z,53.21
2018-07-05T09:43:13.132Z,51.84
2018-07-05T09:45:41.138Z,51.84
2018-07-05T09:48:09.209Z,51.71
2018-07-05T09:50:36.981Z,51.74
2018-07-05T09:53:05.015Z,51.80
2018-07-05T09:55:32.859Z,52.18
2018-07-05T09:58:00.882Z,52.72
2018-07-05T10:00:33.837Z,52.50
2018-07-05T10:03:01.937Z,53.20
2018-07-05T10:05:30.079Z,52.17
2018-07-05T10:07:58.012Z,52.02
2018-07-05T10:10:26.086Z,52.44
2018-07-05T10:12:53.991Z,51.73
2018-07-05T10:15:21.840Z,52.26
2018-07-05T10:17:49.978Z,52.57
2018-07-05T10:20:17.682Z,51.49
2018-07-05T10:22:45.550Z,51.69
2018-07-05T10:25:13.453Z,52.51
2018-07-05T10:27:41.218Z,52.34
2018-07-05T10:30:21.850Z,51.90
2018-07-05T10:33:01.855Z,52.56
2018-07-05T10:35:29.805Z,53.66
2018-07-05T10:38:01.757Z,54.00
2018-07-05T10:40:42.935Z,53.50
2018-07-05T10:43:23.410Z,53.02
2018-07-05T10:46:04.076Z,52.57
2018-07-05T10:48:44.702Z,53.16
2018-07-05T10:51:25.061Z,53.52
2018-07-05T10:54:05.829Z,52.79
2018-07-05T10:56:46.702Z,51.83
2018-07-05T10:59:27.369Z,51.35
2018-07-05T11:02:07.728Z,50.81
2018-07-05T11:04:48.211Z,50.67
2018-07-05T11:07:28.629Z,51.17
2018-07-05T11:10:08.738Z,50.76
2018-07-05T11:12:48.895Z,50.64
2018-07-05T11:15:29.321Z,50.81
2018-07-05T11:18:09.477Z,50.97
2018-07-05T11:20:49.873Z,50.84
2018-07-05T11:23:30.399Z,50.85
2018-07-05T11:26:10.786Z,50.95
2018-07-05T11:28:51.213Z,51.44
2018-07-05T11:31:31.782Z,51.26
2018-07-05T11:34:11.866Z,51.55
2018-07-05T11:36:52.358Z,51.17
2018-07-05T11:39:32.630Z,51.24
2018-07-05T11:42:12.955Z,51.18
2018-07-05T11:44:53.299Z,52.68
2018-07-05T11:47:33.744Z,52.10
2018-07-05T11:50:14.099Z,52.18
2018-07-05T11:52:54.762Z,51.83
2018-07-05T11:55:35.010Z,52.03
2018-07-05T11:58:15.372Z,52.80
2018-07-05T12:00:55.609Z,52.06
2018-07-05T12:03:35.945Z,51.55
2018-07-05T12:06:16.269Z,51.28
2018-07-05T12:08:56.749Z,51.40
2018-07-05T12:11:37.169Z,50.70
2018-07-05T12:14:17.557Z,51.15
2018-07-05T12:16:57.614Z,51.65
2018-07-05T12:19:38.098Z,51.45
2018-07-05T12:22:18.224Z,51.43
2018-07-05T12:24:58.888Z,51.04
2018-07-05T12:27:39.118Z,51.29
2018-07-05T12:30:19.523Z,51.89
2018-07-05T12:32:59.839Z,52.31
2018-07-05T12:35:40.569Z,51.51
2018-07-05T12:38:20.956Z,52.90
2018-07-05T12:41:01.396Z,52.74
2018-07-05T12:43:41.785Z,51.86
2018-07-05T12:46:31.922Z,52.50
2018-07-05T12:49:12.434Z,52.68
2018-07-05T12:54:45.282Z,53.04
2018-07-05T12:57:25.262Z,52.69
2018-07-05T13:00:05.628Z,51.99
2018-07-05T13:02:45.846Z,52.11
2018-07-05T13:05:26.369Z,52.79
2018-07-05T13:08:06.948Z,52.08
2018-07-05T13:10:47.234Z,51.13
2018-07-05T13:13:27.726Z,52.13
2018-07-05T13:16:07.910Z,51.15
2018-07-05T13:18:48.270Z,49.98
2018-07-05T13:21:28.524Z,50.63
2018-07-05T13:24:09.196Z,50.34
2018-07-05T13:26:49.474Z,49.92
2018-07-05T13:29:29.978Z,50.29
2018-07-05T13:32:10.052Z,49.49
2018-07-05T13:34:50.322Z,49.58
2018-07-05T13:37:30.681Z,50.08
2018-07-05T13:40:11.307Z,48.45
2018-07-05T13:42:51.500Z,48.38
2018-07-05T13:45:32.127Z,49.13
2018-07-05T13:48:12.221Z,49.37
2018-07-05T13:50:52.733Z,48.82
2018-07-05T13:53:33.172Z,47.59
2018-07-05T13:56:14.167Z,48.50
2018-07-05T13:58:54.375Z,47.83
2018-07-05T14:01:35.752Z,48.52
2018-07-05T14:04:16.031Z,48.21
2018-07-05T14:06:56.542Z,47.17
2018-07-05T14:09:36.943Z,48.11
2018-07-05T14:12:42.590Z,48.34
2018-07-05T14:18:15.402Z,47.79
2018-07-05T14:20:55.753Z,47.17
2018-07-05T14:23:36.366Z,46.92
2018-07-05T14:26:16.694Z,47.91
2018-07-05T14:28:57.188Z,47.62
2018-07-05T14:31:37.728Z,47.21
2018-07-05T14:34:17.750Z,47.58
2018-07-05T14:36:58.420Z,47.87
2018-07-05T14:39:46.483Z,47.92
2018-07-05T14:42:26.817Z,47.18
2018-07-05T14:45:07.486Z,46.67
2018-07-05T14:47:48.258Z,46.75
2018-07-05T14:50:28.620Z,46.84
2018-07-05T14:53:09.100Z,46.64
2018-07-05T14:55:49.069Z,47.12
2018-07-05T14:58:29.919Z,46.45
2018-07-05T15:01:10.255Z,46.73
2018-07-05T15:03:51.020Z,47.12
2018-07-05T15:06:31.177Z,47.00
2018-07-05T15:09:11.846Z,46.78
2018-07-05T15:11:52.072Z,47.66
2018-07-05T15:14:32.597Z,47.06
2018-07-05T15:17:13.098Z,46.66
2018-07-05T15:19:53.487Z,46.95
2018-07-05T15:22:33.743Z,46.65
2018-07-05T15:25:14.022Z,46.65
2018-07-05T15:27:54.182Z,47.11
2018-07-05T15:30:34.802Z,47.69
2018-07-05T15:33:15.105Z,47.61
2018-07-05T15:35:55.936Z,48.17
2018-07-05T15:38:36.518Z,47.66
2018-07-05T15:41:16.914Z,47.58
2018-07-05T15:43:57.353Z,48.14
2018-07-05T15:46:38.329Z,47.30
2018-07-05T15:49:18.871Z,47.42
2018-07-05T15:51:59.417Z,47.32
2018-07-05T15:54:39.586Z,47.32
2018-07-05T15:57:20.280Z,47.12
2018-07-05T16:00:01.169Z,48.25
2018-07-05T16:02:41.711Z,48.66
2018-07-05T16:05:22.155Z,48.42
2018-07-05T16:08:02.820Z,47.88
2018-07-05T16:10:42.956Z,47.66
2018-07-05T16:13:23.374Z,47.26
2018-07-05T16:16:03.906Z,48.21
2018-07-05T16:18:44.464Z,48.25
2018-07-05T16:21:24.557Z,48.11
2018-07-05T16:24:05.183Z,47.80
2018-07-05T16:26:45.334Z,47.74
2018-07-05T16:29:25.998Z,47.19
2018-07-05T16:32:06.260Z,47.26
2018-07-05T16:34:46.922Z,47.40
2018-07-05T16:37:27.481Z,47.45
2018-07-05T16:40:08.099Z,47.83
2018-07-05T16:42:48.396Z,47.46
2018-07-05T16:45:29.121Z,48.19
2018-07-05T16:48:09.545Z,48.07
2018-07-05T16:50:49.932Z,49.39
2018-07-05T16:53:30.464Z,48.73
2018-07-05T16:56:10.966Z,49.43
2018-07-05T16:58:51.180Z,49.03
2018-07-05T17:01:31.868Z,48.33
2018-07-05T17:04:12.141Z,48.98
2018-07-05T17:06:52.631Z,49.19
2018-07-05T17:09:32.820Z,49.35
2018-07-05T17:12:13.223Z,49.11
2018-07-05T17:14:53.488Z,49.50
2018-07-05T17:17:33.996Z,49.02
2018-07-05T17:20:14.358Z,49.65
2018-07-05T17:22:55.362Z,49.55
2018-07-05T17:25:35.594Z,50.46
2018-07-05T17:28:16.053Z,49.81
2018-07-05T17:30:56.410Z,49.62
2018-07-05T17:33:37.172Z,49.87
2018-07-05T17:36:17.338Z,50.27
2018-07-05T17:38:57.941Z,50.73
2018-07-05T17:41:38.258Z,50.63
2018-07-05T17:44:18.757Z,50.63
2018-07-05T17:46:59.122Z,50.88
2018-07-05T17:49:39.611Z,51.06
2018-07-05T17:52:19.799Z,50.44
2018-07-05T17:55:00.296Z,50.95
2018-07-05T17:57:40.721Z,51.21
2018-07-05T18:00:21.282Z,51.12
2018-07-05T18:03:01.954Z,51.61
2018-07-05T18:05:42.412Z,51.30
2018-07-05T18:08:22.625Z,52.12
2018-07-05T18:11:03.136Z,52.50
2018-07-05T18:13:43.667Z,53.62
2018-07-05T18:16:24.131Z,54.08
2018-07-05T18:19:04.430Z,53.64
2018-07-05T18:21:44.956Z,53.50
2018-07-05T18:24:25.144Z,53.60
2018-07-05T18:27:05.704Z,54.42
2018-07-05T18:29:45.968Z,54.09
2018-07-05T18:32:26.562Z,54.62
2018-07-05T18:35:06.891Z,54.47
2018-07-05T18:37:47.286Z,54.61
2018-07-05T18:40:27.858Z,54.63
2018-07-05T18:43:08.165Z,54.56
2018-07-05T18:45:48.628Z,54.97
2018-07-05T18:48:28.874Z,54.95
2018-07-05T18:51:09.441Z,55.29
2018-07-05T18:53:49.876Z,55.40
2018-07-05T18:56:30.293Z,55.68
2018-07-05T18:59:12.127Z,55.18
2018-07-05T19:01:52.857Z,55.72
2018-07-05T19:04:33.625Z,55.59
2018-07-05T19:07:14.209Z,55.88
2018-07-05T19:09:54.414Z,55.44
2018-07-05T19:12:34.881Z,55.60
2018-07-05T19:15:15.337Z,55.65
2018-07-05T19:17:55.703Z,55.30
2018-07-05T19:20:36.059Z,55.09
2018-07-05T19:23:16.731Z,54.85
2018-07-05T19:25:57.269Z,55.69
2018-07-05T19:28:37.802Z,55.53
2018-07-05T19:31:18.098Z,55.97
2018-07-05T19:33:58.392Z,56.46
2018-07-05T19:36:38.825Z,56.33
2018-07-05T19:39:19.292Z,56.44
2018-07-05T19:42:00.060Z,56.75
2018-07-05T19:44:40.417Z,57.80
2018-07-05T19:47:20.879Z,58.32
2018-07-05T19:50:01.117Z,58.29
2018-07-05T19:52:41.630Z,58.94
2018-07-05T19:55:21.954Z,59.30
2018-07-05T19:58:02.469Z,59.40
2018-07-05T20:00:42.625Z,59.22
2018-07-05T20:03:23.292Z,59.05
2018-07-05T20:06:04.160Z,59.81
2018-07-05T20:08:44.779Z,59.96
2018-07-05T20:11:25.342Z,59.86
2018-07-05T20:14:05.906Z,60.06
2018-07-05T20:16:46.143Z,59.67
2018-07-05T20:19:26.750Z,59.31
2018-07-05T20:22:10.882Z,59.90
2018-07-05T20:24:51.546Z,59.35
2018-07-05T20:27:32.000Z,60.17
2018-07-05T20:30:12.629Z,60.42
2018-07-05T20:32:53.232Z,59.88
2018-07-05T20:35:33.596Z,60.44
2018-07-05T20:38:13.706Z,60.11
2018-07-05T20:40:54.410Z,60.27
2018-07-05T20:43:34.565Z,60.56
2018-07-05T20:46:15.181Z,60.13
2018-07-05T20:48:55.592Z,60.18
2018-07-05T20:51:36.008Z,60.01
2018-07-05T20:54:16.629Z,60.22
2018-07-05T20:56:57.517Z,60.39
2018-07-05T20:59:38.154Z,60.46
2018-07-05T21:02:18.688Z,59.95
2018-07-05T21:05:00.155Z,60.37
2018-07-05T21:07:41.356Z,60.16
2018-07-05T21:10:21.637Z,60.63
2018-07-05T21:13:02.497Z,60.27
2018-07-05T21:15:42.601Z,60.11
2018-07-05T21:18:23.094Z,60.63
2018-07-05T21:21:04.102Z,60.72
2018-07-05T21:23:44.640Z,60.26
2018-07-05T21:26:25.440Z,60.93
2018-07-05T21:29:05.892Z,61.02
2018-07-05T21:31:46.381Z,61.04
2018-07-05T21:34:26.819Z,60.80
2018-07-05T21:37:07.023Z,60.92
2018-07-05T21:39:47.688Z,60.56
2018-07-05T21:42:28.253Z,60.35
2018-07-05T21:45:08.689Z,60.88
2018-07-05T21:47:49.187Z,60.52
2018-07-05T21:50:30.310Z,60.77
2018-07-05T21:53:10.676Z,60.88
2018-07-05T21:55:51.496Z,61.03
2018-07-05T21:58:32.101Z,60.56
2018-07-05T22:01:12.779Z,60.83
2018-07-05T22:03:52.899Z,60.89
2018-07-05T22:06:33.311Z,60.75
2018-07-05T22:09:13.945Z,60.62
2018-07-05T22:11:54.744Z,61.12
2018-07-05T22:14:35.178Z,61.02
2018-07-05T22:17:20.432Z,60.67
2018-07-05T22:20:05.841Z,60.59
2018-07-05T22:22:51.310Z,60.73
2018-07-05T22:25:36.787Z,61.16
2018-07-05T22:28:22.369Z,61.15
2018-07-05T22:31:07.747Z,60.68
2018-07-05T22:33:48.239Z,60.65
2018-07-05T22:36:28.999Z,60.95
2018-07-05T22:39:09.327Z,60.94
2018-07-05T22:41:49.745Z,60.52
2018-07-05T22:44:30.260Z,60.83
2018-07-05T22:47:11.006Z,60.73
2018-07-05T22:49:51.183Z,60.87
2018-07-05T22:52:31.757Z,61.35
2018-07-05T22:55:12.107Z,60.95
2018-07-05T22:57:52.510Z,61.41
2018-07-05T23:00:33.028Z,61.29
2018-07-05T23:03:13.355Z,60.71
2018-07-05T23:05:53.640Z,60.95
2018-07-05T23:08:33.999Z,60.93
2018-07-05T23:11:14.672Z,60.77
2018-07-05T23:13:55.437Z,60.92
2018-07-05T23:16:36.004Z,60.85
2018-07-05T23:19:16.469Z,60.63
2018-07-05T23:21:56.825Z,60.98
2018-07-05T23:24:37.367Z,61.22
2018-07-05T23:27:17.803Z,61.13
2018-07-05T23:29:58.252Z,60.74
2018-07-05T23:32:38.671Z,60.90
2018-07-05T23:35:19.238Z,60.94
2018-07-05T23:37:59.496Z,61.09
2018-07-05T23:40:39.998Z,61.30
2018-07-05T23:43:20.211Z,60.80
2018-07-05T23:46:00.753Z,60.62
2018-07-05T23:48:40.929Z,60.87
2018-07-05T23:51:21.599Z,60.52
2018-07-05T23:54:01.683Z,60.78
2018-07-05T23:56:42.216Z,60.46
2018-07-05T23:59:22.579Z,60.77
